Terminal Aerodrome Forecast
Issued by NWS Pocatello, ID

Home | Current Version | Previous Version | Text Only | Print | Product List | Glossary On
Versions: 1 2 3 4 5 6 7 8 9 10 11 12 13 14 15 16
078
FTUS45 KPIH 250520
TAFPIH
TAF
KPIH 250520Z 2506/2606 22008KT P6SM VCSH BKN060 BKN200
     FM251600 25011KT P6SM BKN080
     FM252100 25012G22KT P6SM VCTS SCT050CB BKN080
     FM260200 23009KT P6SM SCT050=

USA.gov is the U.S. government's official web portal to all federal, state and local government web resources and services.